CDT,Max TemperatureF,Mean TemperatureF,Min TemperatureF,Max Dew PointF,MeanDew PointF,Min DewpointF,Max Humidity, Mean Humidity, Min Humidity, Max Sea Level PressureIn, Mean Sea Level PressureIn, Min Sea Level PressureIn, Max VisibilityMiles, Mean VisibilityMiles, Min VisibilityMiles, Max Wind SpeedMPH, Mean Wind SpeedMPH, Max Gust SpeedMPH,PrecipitationIn, CloudCover, Events, WindDirDegrees
2013-10-1,79,64,48,62,56,48,100,78,54,29.94,29.85,29.80,10,10,8,22,8,29,0.00,0,,230
2013-10-2,73,58,44,50,44,37,100,70,28,30.12,30.05,29.96,10,9,2,9,3,,0.00,0,,208
2013-10-3,77,62,48,67,60,47,100,94,71,30.01,29.91,29.86,10,6,0,14,4,21,0.01,6,Fog-Rain-Thunderstorm,89
2013-10-4,61,59,57,61,59,57,100,100,100,30.05,29.98,29.90,10,4,0,14,4,,0.45,8,Fog-Rain-Thunderstorm,33
2013-10-5,69,64,60,68,64,60,100,100,96,30.00,29.87,29.73,10,3,0,13,7,,0.76,8,Fog-Rain-Thunderstorm,90
2013-10-6,64,58,51,64,51,40,100,79,46,29.73,29.70,29.66,10,10,7,12,7,,0.13,7,Rain,247
2013-10-7,64,54,43,48,45,41,100,83,45,30.09,29.83,29.68,10,9,3,16,9,22,0.03,4,Rain,291
2013-10-8,70,53,37,56,48,37,100,81,49,30.17,30.14,30.10,10,10,10,15,4,22,0.00,0,,171
2013-10-9,71,56,41,53,47,41,100,85,48,30.24,30.19,30.14,10,7,1,12,4,,0.00,0,,177
2013-10-10,70,53,37,57,46,37,100,94,51,30.20,30.15,30.08,10,3,0,10,1,,0.00,2,Fog,160
2013-10-11,68,56,44,59,51,44,100,88,65,30.10,30.06,29.98,10,6,0,14,2,20,0.02,0,Fog,151
2013-10-12,66,57,46,63,55,41,100,85,62,30.14,29.97,29.92,10,8,1,15,9,21,0.69,5,Rain-Thunderstorm,188
2013-10-13,60,48,37,45,41,36,100,77,49,30.42,30.33,30.15,10,10,10,15,6,18,0.00,1,,287
2013-10-14,59,45,33,46,40,33,100,84,57,30.45,30.36,30.19,10,10,8,10,2,,0.00,1,,93
2013-10-15,59,54,50,56,53,43,100,95,77,30.17,29.86,29.74,10,5,0,14,8,21,0.37,6,Fog-Rain,176
2013-10-16,53,50,48,50,47,45,96,90,82,29.92,29.83,29.75,10,9,5,14,7,,0.01,8,Rain,280
2013-10-17,54,46,39,45,41,37,100,84,61,29.91,29.85,29.79,10,10,10,9,2,,0.00,6,,265
2013-10-18,54,45,37,44,40,37,100,83,71,29.91,29.85,29.79,10,10,10,18,7,24,0.00,6,,260
2013-10-19,53,42,33,40,35,30,100,77,43,29.89,29.79,29.72,10,10,10,15,5,21,0.00,3,Rain,243
2013-10-20,48,39,32,46,38,30,100,92,68,29.87,29.79,29.70,10,8,1,12,6,,0.15,5,Rain,226
2013-10-21,46,39,32,43,31,21,87,70,52,29.91,29.85,29.71,10,10,10,20,14,28,0.00,7,,271
2013-10-22,48,38,30,32,28,22,82,68,48,29.94,29.92,29.89,10,10,10,14,10,20,0.00,2,,293
2013-10-23,44,36,28,30,26,19,92,68,40,29.99,29.96,29.94,10,10,10,14,7,22,0.00,5,,295
2013-10-24,44,38,33,33,28,26,89,68,51,30.27,30.13,29.99,10,10,6,16,9,23,0.01,6,Snow,295
2013-10-25,48,37,26,30,28,25,96,64,39,30.35,30.17,29.83,10,10,10,23,10,37,0.00,2,,246
2013-10-26,52,44,36,36,31,27,79,56,44,30.06,29.87,29.72,10,10,10,24,16,36,0.00,6,,297
2013-10-27,53,40,28,32,30,26,96,67,40,30.06,29.98,29.89,10,10,10,18,6,25,0.00,1,,234
2013-10-28,45,40,35,34,30,25,79,69,58,30.45,30.33,30.09,10,10,10,21,13,30,0.00,7,,25
2013-10-29,46,40,33,41,35,26,100,84,70,30.44,30.33,30.16,10,9,2,9,5,,0.00,7,,89
2013-10-30,53,42,30,54,44,30,100,98,86,30.17,30.03,29.77,5,2,0,12,3,17,0.00,8,Fog,157
2013-10-31,63,55,45,63,55,44,100,98,88,29.75,29.45,29.17,10,5,0,22,5,30,1.16,8,Fog-Rain,202